Time;durP1;ratioP1;P1;durP2;ratioP2;P2;SDS_P1;SDS_P2;PMS_P1;PMS_P2;Temp;Humidity;BMP_temperature;BMP_pressure;BME280_temperature;BME280_humidity;BME280_pressure;Samples;Min_cycle;Max_cycle;Signal;HPM_P1;HPM_P2
2023/01/16 00:00:50;;;;;;;7.35;2.47;;;;;;;4.20;100.00;98671.38;5051023;28;20025;-70
2023/01/16 00:03:15;;;;;;;9.18;2.45;;;;;;;4.18;100.00;98660.22;5049828;28;20036;-69
2023/01/16 00:05:42;;;;;;;5.28;1.65;;;;;;;4.20;100.00;98664.41;5049480;28;20036;-70
2023/01/16 00:08:07;;;;;;;9.65;1.98;;;;;;;4.06;100.00;98636.56;5054968;28;20036;-69
2023/01/16 00:10:33;;;;;;;6.55;2.22;;;;;;;4.16;100.00;98649.09;5046712;28;20511;-69
2023/01/16 00:12:58;;;;;;;6.07;1.83;;;;;;;4.20;100.00;98655.78;5038326;28;20477;-70
2023/01/16 00:15:23;;;;;;;8.80;2.45;;;;;;;4.13;100.00;98645.72;5050744;28;20036;-70
2023/01/16 00:17:49;;;;;;;9.13;2.30;;;;;;;4.14;100.00;98651.75;5044314;28;20540;-70
2023/01/16 00:20:15;;;;;;;8.10;2.63;;;;;;;4.02;100.00;98636.81;5045919;28;20040;-69
2023/01/16 00:22:41;;;;;;;7.43;2.08;;;;;;;4.01;100.00;98651.56;5042564;28;20025;-70
2023/01/16 00:25:07;;;;;;;6.28;2.70;;;;;;;3.89;100.00;98641.78;5050042;28;20054;-70
2023/01/16 00:27:32;;;;;;;5.60;2.10;;;;;;;3.67;100.00;98624.78;5047629;28;20375;-70
2023/01/16 00:29:57;;;;;;;4.40;2.10;;;;;;;3.68;100.00;98634.25;5049795;28;20029;-70
2023/01/16 00:32:23;;;;;;;7.05;2.42;;;;;;;3.59;100.00;98617.38;5049751;28;20476;-70
2023/01/16 00:34:48;;;;;;;8.70;2.20;;;;;;;3.57;100.00;98616.63;5051120;28;20031;-70
2023/01/16 00:37:14;;;;;;;5.90;2.13;;;;;;;3.49;100.00;98595.41;5035677;28;20028;-70
2023/01/16 00:39:39;;;;;;;5.20;1.88;;;;;;;3.52;100.00;98605.63;5051233;28;20033;-70
2023/01/16 00:42:05;;;;;;;9.00;2.45;;;;;;;3.52;100.00;98613.41;5031853;28;20467;-70
2023/01/16 00:44:31;;;;;;;8.98;2.10;;;;;;;3.55;100.00;98613.25;5046215;28;20038;-70
2023/01/16 00:46:56;;;;;;;7.88;2.53;;;;;;;3.47;100.00;98605.88;5027168;28;20091;-70
2023/01/16 00:49:21;;;;;;;4.25;2.00;;;;;;;3.54;100.00;98598.63;5032754;28;20036;-70
2023/01/16 00:51:47;;;;;;;7.68;2.45;;;;;;;3.42;100.00;98568.91;5047995;28;20507;-70
2023/01/16 00:54:12;;;;;;;11.07;2.47;;;;;;;3.46;100.00;98577.38;5047961;28;20035;-69
2023/01/16 00:56:37;;;;;;;11.10;2.03;;;;;;;3.50;100.00;98589.28;5049669;28;20036;-70
2023/01/16 00:59:03;;;;;;;9.15;1.75;;;;;;;3.41;100.00;98574.19;5044738;28;20036;-70
2023/01/16 01:01:28;;;;;;;10.35;2.40;;;;;;;3.41;100.00;98579.38;5048712;28;20090;-69
2023/01/16 01:03:54;;;;;;;8.30;2.00;;;;;;;3.45;100.00;98570.50;5049601;28;20472;-69
2023/01/16 01:06:19;;;;;;;5.00;2.20;;;;;;;3.50;100.00;98565.94;5055344;28;20037;-69
2023/01/16 01:08:44;;;;;;;12.20;2.17;;;;;;;3.44;100.00;98542.88;5058288;28;20099;-69
2023/01/16 01:11:12;;;;;;;13.52;2.35;;;;;;;3.42;100.00;98550.75;5052458;28;20104;-69
2023/01/16 01:13:38;;;;;;;9.20;2.22;;;;;;;3.33;100.00;98540.84;5067417;28;20059;-70
2023/01/16 01:16:04;;;;;;;5.22;1.40;;;;;;;3.26;100.00;98525.66;5045116;28;20021;-69
2023/01/16 01:18:30;;;;;;;6.70;2.35;;;;;;;3.33;100.00;98538.25;5050939;28;20471;-69
2023/01/16 01:20:55;;;;;;;11.40;2.00;;;;;;;3.18;100.00;98501.88;5039130;28;20152;-69
2023/01/16 01:23:21;;;;;;;10.10;1.90;;;;;;;3.15;100.00;98500.25;5056468;28;20507;-69
2023/01/16 01:25:46;;;;;;;5.72;1.65;;;;;;;2.68;100.00;98432.59;5056786;28;20029;-70
2023/01/16 01:28:11;;;;;;;6.75;2.20;;;;;;;3.17;100.00;98501.00;5047328;28;20028;-70
2023/01/16 01:30:38;;;;;;;5.32;2.10;;;;;;;3.07;100.00;98508.44;5055824;28;20044;-70
2023/01/16 01:33:03;;;;;;;10.15;2.58;;;;;;;2.88;100.00;98484.31;5053367;28;20052;-69
2023/01/16 01:35:29;;;;;;;8.65;2.03;;;;;;;2.89;100.00;98488.59;5051403;28;20025;-70
2023/01/16 01:37:54;;;;;;;7.85;1.98;;;;;;;2.92;100.00;98493.63;5038249;28;20025;-70
2023/01/16 01:40:19;;;;;;;10.80;2.75;;;;;;;2.86;100.00;98478.38;5058054;28;20498;-70
2023/01/16 01:42:51;;;;;;;6.25;2.17;;;;;;;2.81;100.00;98480.34;5051484;28;20391;-70
2023/01/16 01:45:30;;;;;;;8.23;2.00;;;;;;;2.74;100.00;98463.41;5031312;28;20442;-70
2023/01/16 01:48:04;;;;;;;6.18;2.08;;;;;;;2.76;100.00;98465.94;5037218;28;20032;-70
2023/01/16 01:50:40;;;;;;;6.53;2.30;;;;;;;2.71;100.00;98453.19;5053034;28;20040;-69
2023/01/16 01:53:18;;;;;;;7.30;2.10;;;;;;;2.64;100.00;98441.44;5054099;28;20056;-69
2023/01/16 01:55:45;;;;;;;9.93;2.35;;;;;;;2.68;100.00;98435.19;5020457;28;20033;-70
2023/01/16 01:58:16;;;;;;;5.53;2.13;;;;;;;2.70;100.00;98428.19;5047066;28;20025;-70
2023/01/16 02:00:42;;;;;;;4.90;1.92;;;;;;;2.73;100.00;98430.63;5046484;28;20495;-70
2023/01/16 02:03:10;;;;;;;12.43;2.30;;;;;;;2.68;100.00;98406.69;5046776;28;20160;-70
2023/01/16 02:05:44;;;;;;;8.95;2.60;;;;;;;2.23;100.00;98326.06;5068533;28;20641;-70
2023/01/16 02:08:13;;;;;;;6.15;2.25;;;;;;;2.56;100.00;98376.22;5038723;28;20083;-70
2023/01/16 02:10:43;;;;;;;6.88;2.35;;;;;;;2.70;100.00;98398.84;5038312;28;20071;-70
2023/01/16 02:13:09;;;;;;;10.02;2.50;;;;;;;2.60;100.00;98388.09;5037549;28;20041;-70
2023/01/16 02:15:35;;;;;;;7.88;2.38;;;;;;;2.52;100.00;98367.75;5055985;28;20020;-69
2023/01/16 02:21:25;;;;;;;6.57;2.10;;;;;;;2.43;100.00;98352.63;5052966;28;20444;-70
2023/01/16 02:24:20;;;;;;;8.70;2.03;;;;;;;2.57;100.00;98351.94;5030882;28;20502;-69
2023/01/16 02:26:57;;;;;;;6.97;2.20;;;;;;;2.50;100.00;98329.88;5050710;28;20037;-70
2023/01/16 02:29:37;;;;;;;5.18;1.85;;;;;;;2.62;100.00;98339.59;5053267;28;20287;-70
2023/01/16 02:32:18;;;;;;;8.95;2.58;;;;;;;2.69;100.00;98334.94;5035547;28;20025;-70
2023/01/16 02:34:56;;;;;;;6.82;2.10;;;;;;;2.67;100.00;98305.69;5052038;28;20091;-70
2023/01/16 02:37:28;;;;;;;8.32;2.17;;;;;;;2.73;100.00;98295.81;5034043;28;20509;-70
2023/01/16 02:40:04;;;;;;;7.65;2.38;;;;;;;2.76;100.00;98285.28;5049041;28;20135;-70
2023/01/16 02:42:34;;;;;;;11.18;1.80;;;;;;;2.80;100.00;98291.16;5069742;28;20025;-70
2023/01/16 02:45:18;;;;;;;7.75;2.35;;;;;;;2.87;100.00;98288.13;5033956;28;20032;-70
2023/01/16 02:47:46;;;;;;;5.75;2.28;;;;;;;2.92;100.00;98280.94;5051310;28;20033;-70
2023/01/16 02:50:21;;;;;;;4.45;1.50;;;;;;;2.93;100.00;98277.44;5052764;28;20082;-70
2023/01/16 02:53:23;;;;;;;8.63;2.00;;;;;;;2.97;100.00;98271.16;5004304;28;20029;-70
2023/01/16 02:56:02;;;;;;;8.50;2.22;;;;;;;2.91;100.00;98250.75;5002408;28;20095;-70
2023/01/16 02:58:29;;;;;;;11.10;1.92;;;;;;;3.02;100.00;98248.41;5041597;28;20037;-70
2023/01/16 03:00:56;;;;;;;7.35;2.10;;;;;;;3.06;100.00;98243.91;5034923;28;20471;-70
2023/01/16 03:03:36;;;;;;;7.22;2.03;;;;;;;3.08;100.00;98240.28;5052017;28;20380;-70
2023/01/16 03:06:42;;;;;;;8.40;1.52;;;;;;;3.09;100.00;98230.75;5029646;28;20068;-70
2023/01/16 03:09:33;;;;;;;4.72;1.50;;;;;;;3.13;100.00;98227.06;5026612;28;20715;-70
2023/01/16 03:12:11;;;;;;;4.63;1.88;;;;;;;3.03;100.00;98210.34;5053150;28;20154;-70
2023/01/16 03:15:13;;;;;;;3.97;1.20;;;;;;;3.02;100.00;98195.69;5050304;28;20126;-70
2023/01/16 03:17:54;;;;;;;8.30;1.88;;;;;;;2.98;100.00;98182.06;5049299;28;20037;-70
2023/01/16 03:20:44;;;;;;;3.83;1.48;;;;;;;3.08;100.00;98185.81;5042501;28;20471;-70
2023/01/16 03:23:13;;;;;;;7.43;2.10;;;;;;;3.07;100.00;98167.75;5052483;28;20035;-70
2023/01/16 03:25:55;;;;;;;4.80;1.48;;;;;;;3.02;100.00;98168.00;5035202;28;20029;-70
2023/01/16 03:28:33;;;;;;;6.63;1.85;;;;;;;3.01;100.00;98166.31;5024513;28;20037;-70
2023/01/16 03:31:17;;;;;;;13.27;2.28;;;;;;;3.00;100.00;98149.13;5051538;28;20033;-70
2023/01/16 03:33:44;;;;;;;5.18;2.22;;;;;;;2.99;100.00;98141.41;5051874;28;20024;-69
2023/01/16 03:36:18;;;;;;;7.93;1.80;;;;;;;2.95;100.00;98145.91;5043118;28;20039;-69
2023/01/16 03:38:46;;;;;;;5.03;1.38;;;;;;;2.92;100.00;98109.78;5005299;28;20816;-70
2023/01/16 03:41:15;;;;;;;6.88;1.80;;;;;;;2.92;100.00;98096.81;5022745;28;20100;-70
2023/01/16 03:43:44;;;;;;;7.00;2.03;;;;;;;3.01;100.00;98083.31;4991107;28;20506;-70
2023/01/16 03:46:11;;;;;;;6.22;1.70;;;;;;;3.15;100.00;98085.13;5030981;28;20037;-69
2023/01/16 03:48:52;;;;;;;7.28;2.40;;;;;;;3.19;100.00;98075.41;5033754;28;20040;-69
2023/01/16 03:51:24;;;;;;;8.30;2.10;;;;;;;3.19;100.00;98059.84;5050400;28;20112;-69
2023/01/16 03:54:27;;;;;;;8.07;2.00;;;;;;;3.27;100.00;98057.66;5031497;28;20044;-69
2023/01/16 03:57:00;;;;;;;6.78;2.17;;;;;;;3.24;100.00;98052.66;5049026;28;20040;-70
2023/01/16 03:59:26;;;;;;;5.40;1.80;;;;;;;3.25;100.00;98051.69;5032852;28;20032;-70
2023/01/16 04:02:07;;;;;;;14.55;3.20;;;;;;;3.25;100.00;98036.13;5047874;28;20384;-69
2023/01/16 04:05:05;;;;;;;5.32;1.98;;;;;;;3.30;100.00;98028.94;5031271;28;20029;-69
2023/01/16 04:07:35;;;;;;;9.70;2.17;;;;;;;3.33;100.00;98018.38;5033420;28;20040;-69
2023/01/16 04:10:04;;;;;;;7.78;2.00;;;;;;;3.20;100.00;97994.91;5050861;28;20063;-69
2023/01/16 04:12:35;;;;;;;10.75;2.80;;;;;;;3.13;100.00;97977.19;5015870;28;20112;-70
2023/01/16 04:15:04;;;;;;;6.82;2.20;;;;;;;3.30;100.00;97990.00;5060327;28;20071;-70
2023/01/16 04:17:29;;;;;;;7.07;2.03;;;;;;;3.28;100.00;97979.69;5032106;28;20428;-70
2023/01/16 04:19:55;;;;;;;11.25;1.90;;;;;;;3.22;100.00;97961.06;5021018;28;20041;-70
2023/01/16 04:22:24;;;;;;;13.00;1.85;;;;;;;3.38;100.00;97983.41;5027919;28;20823;-70
2023/01/16 04:24:50;;;;;;;5.85;1.95;;;;;;;3.40;100.00;97959.97;5049551;28;20027;-70
2023/01/16 04:27:17;;;;;;;3.65;1.13;;;;;;;3.43;100.00;97962.38;5050506;28;20028;-70
2023/01/16 04:29:42;;;;;;;6.97;2.72;;;;;;;3.37;100.00;97934.22;5051031;28;20021;-69
2023/01/16 04:32:08;;;;;;;6.10;2.17;;;;;;;3.43;100.00;97924.28;5051870;28;20463;-69
2023/01/16 04:34:33;;;;;;;5.60;2.22;;;;;;;3.47;100.00;97928.38;5031768;28;20483;-69
2023/01/16 04:36:59;;;;;;;5.88;1.55;;;;;;;3.44;100.00;97894.81;5050232;28;20029;-70
2023/01/16 04:39:24;;;;;;;3.50;1.52;;;;;;;3.46;100.00;97895.56;5049303;28;20088;-70
2023/01/16 04:41:50;;;;;;;6.10;1.52;;;;;;;3.52;100.00;97895.16;5047811;28;20021;-70
2023/01/16 04:44:16;;;;;;;4.97;1.60;;;;;;;3.33;100.00;97860.06;5049908;28;20037;-69
2023/01/16 04:46:42;;;;;;;7.25;1.77;;;;;;;3.53;100.00;97864.84;5033246;28;20032;-69
2023/01/16 04:49:07;;;;;;;4.97;1.50;;;;;;;3.37;100.00;97830.41;5021866;28;20024;-70
2023/01/16 04:51:33;;;;;;;10.15;1.42;;;;;;;3.47;100.00;97839.28;5023542;28;20035;-70
2023/01/16 04:53:59;;;;;;;6.07;1.90;;;;;;;3.48;100.00;97833.19;5045937;28;20091;-70
2023/01/16 04:56:24;;;;;;;5.55;1.83;;;;;;;3.50;100.00;97829.56;5031437;28;20033;-71
2023/01/16 04:58:50;;;;;;;5.32;1.83;;;;;;;3.48;100.00;97817.59;5037337;28;20032;-71
2023/01/16 05:01:17;;;;;;;7.20;2.10;;;;;;;3.46;100.00;97803.88;5026896;28;20430;-70
2023/01/16 05:03:43;;;;;;;12.02;1.63;;;;;;;3.56;100.00;97805.78;5048867;28;20498;-70
2023/01/16 05:06:08;;;;;;;4.13;1.70;;;;;;;3.55;100.00;97782.50;5049277;28;20033;-70
2023/01/16 05:08:33;;;;;;;7.63;1.50;;;;;;;3.66;100.00;97787.88;5049054;28;20020;-70
2023/01/16 05:11:00;;;;;;;3.88;1.48;;;;;;;3.67;100.00;97781.75;5049449;28;20040;-70
2023/01/16 05:13:27;;;;;;;4.63;1.40;;;;;;;3.60;100.00;97751.91;5048970;28;20187;-70
2023/01/16 05:15:52;;;;;;;3.65;1.48;;;;;;;3.55;100.00;97731.44;5047952;28;20044;-70
2023/01/16 05:18:17;;;;;;;6.28;1.67;;;;;;;3.73;100.00;97745.00;5047581;28;20059;-70
2023/01/16 05:20:43;;;;;;;5.47;1.55;;;;;;;3.74;100.00;97745.84;5048513;28;20581;-71
2023/01/16 05:23:11;;;;;;;4.95;1.23;;;;;;;3.55;100.00;97694.25;5030953;28;20028;-70
2023/01/16 05:25:38;;;;;;;7.82;1.25;;;;;;;3.84;100.00;97736.50;5048162;28;20059;-70
2023/01/16 05:28:03;;;;;;;3.97;1.00;;;;;;;3.86;100.00;97725.06;5029239;28;20179;-70
2023/01/16 05:30:29;;;;;;;3.08;1.00;;;;;;;3.92;100.00;97716.88;5048556;28;20531;-70
2023/01/16 05:32:55;;;;;;;3.13;1.00;;;;;;;3.95;100.00;97713.25;5048810;28;20021;-70
2023/01/16 05:35:20;;;;;;;3.40;1.13;;;;;;;3.94;100.00;97696.84;5049603;28;20078;-70
2023/01/16 05:37:46;;;;;;;3.42;1.10;;;;;;;3.98;100.00;97687.91;5031028;28;20033;-70
2023/01/16 05:40:12;;;;;;;3.67;1.23;;;;;;;3.99;100.00;97679.16;5048866;28;20540;-70
2023/01/16 05:42:37;;;;;;;4.43;1.20;;;;;;;4.00;100.00;97665.25;5048586;28;20111;-70
2023/01/16 05:45:03;;;;;;;4.13;1.23;;;;;;;3.93;100.00;97645.81;5065357;28;20029;-70
2023/01/16 05:47:29;;;;;;;4.20;1.48;;;;;;;4.02;100.00;97644.38;5044182;28;20832;-70
2023/01/16 05:49:58;;;;;;;6.15;1.33;;;;;;;4.08;100.00;97642.19;5010823;28;20087;-70
2023/01/16 05:52:25;;;;;;;3.58;0.98;;;;;;;4.12;100.00;97633.22;5015792;28;20151;-70
2023/01/16 05:54:51;;;;;;;2.92;1.00;;;;;;;4.23;100.00;97639.44;5027639;28;20117;-70
2023/01/16 05:57:16;;;;;;;2.75;0.77;;;;;;;4.17;100.00;97609.53;5035602;28;20025;-70
2023/01/16 05:59:45;;;;;;;3.47;1.25;;;;;;;4.21;100.00;97602.38;5048849;28;20036;-70
2023/01/16 06:02:11;;;;;;;2.80;1.08;;;;;;;4.30;100.00;97606.91;5049017;28;20105;-69
2023/01/16 06:04:36;;;;;;;6.93;1.58;;;;;;;4.24;100.00;97587.38;5054047;28;20485;-70
2023/01/16 06:07:02;;;;;;;5.25;1.20;;;;;;;4.26;100.00;97592.50;5047558;28;20778;-70
2023/01/16 06:09:27;;;;;;;3.85;1.02;;;;;;;4.16;100.00;97560.28;5038755;28;20025;-70
2023/01/16 06:11:52;;;;;;;2.10;0.93;;;;;;;4.28;100.00;97570.66;5052082;28;20029;-71
2023/01/16 06:14:18;;;;;;;3.20;0.90;;;;;;;4.32;100.00;97566.06;5052001;28;20857;-70
2023/01/16 06:16:44;;;;;;;3.75;1.17;;;;;;;4.35;100.00;97566.69;5051899;28;20088;-70
2023/01/16 06:19:10;;;;;;;2.72;0.80;;;;;;;4.37;100.00;97548.38;5052242;28;20862;-71
2023/01/16 06:21:35;;;;;;;4.72;1.13;;;;;;;4.29;100.00;97524.72;5051757;28;20180;-70
2023/01/16 06:24:00;;;;;;;3.67;1.23;;;;;;;4.34;100.00;97525.19;5051848;28;20042;-70
2023/01/16 06:26:26;;;;;;;2.95;1.10;;;;;;;4.38;100.00;97526.66;5052583;28;20467;-70
2023/01/16 06:28:51;;;;;;;3.33;1.00;;;;;;;4.30;100.00;97515.94;5052886;28;20052;-70
2023/01/16 06:31:17;;;;;;;3.35;1.33;;;;;;;4.31;100.00;97508.06;5052968;28;20104;-70
2023/01/16 06:33:42;;;;;;;6.10;1.55;;;;;;;4.15;100.00;97483.28;5052992;28;20106;-69
2023/01/16 06:36:07;;;;;;;6.15;1.48;;;;;;;4.22;100.00;97489.69;5052031;28;20483;-69
2023/01/16 06:38:33;;;;;;;3.13;1.10;;;;;;;4.12;100.00;97481.75;5052541;28;20029;-70
2023/01/16 06:40:58;;;;;;;5.80;1.52;;;;;;;4.08;100.00;97467.31;5017897;28;20021;-70
2023/01/16 06:43:25;;;;;;;5.65;1.40;;;;;;;3.85;100.00;97422.16;5053522;28;20468;-70
2023/01/16 06:45:50;;;;;;;4.88;1.52;;;;;;;3.96;100.00;97432.63;5035102;28;20119;-69
2023/01/16 06:48:16;;;;;;;9.50;1.60;;;;;;;4.04;100.00;97443.31;5052744;28;20104;-69
2023/01/16 06:50:41;;;;;;;3.70;1.63;;;;;;;4.00;100.00;97418.47;5051886;28;20120;-70
2023/01/16 06:53:06;;;;;;;6.28;1.48;;;;;;;3.99;100.00;97415.97;5051718;28;20457;-70
2023/01/16 06:55:32;;;;;;;5.03;1.80;;;;;;;4.00;100.00;97428.88;5032882;28;20641;-69
2023/01/16 06:57:57;;;;;;;3.35;1.73;;;;;;;4.00;100.00;97426.28;5050804;28;20074;-69
2023/01/16 07:00:23;;;;;;;4.72;1.77;;;;;;;3.99;100.00;97416.81;5050899;28;20515;-70
2023/01/16 07:02:56;;;;;;;5.85;1.48;;;;;;;3.97;100.00;97410.91;5048161;28;20048;-69
2023/01/16 07:05:25;;;;;;;4.65;1.50;;;;;;;3.96;100.00;97393.66;5015946;28;20028;-69
2023/01/16 07:07:51;;;;;;;6.93;1.95;;;;;;;3.56;100.00;97325.59;5050318;28;20033;-69
2023/01/16 07:10:17;;;;;;;5.55;1.38;;;;;;;3.92;100.00;97373.25;5047974;28;20033;-69
2023/01/16 07:12:42;;;;;;;5.70;1.42;;;;;;;3.93;100.00;97367.91;5033557;28;20483;-70
2023/01/16 07:23:31;;;;;;;4.50;1.30;;;;;;;3.90;100.00;97342.16;5043999;28;20044;-71
2023/01/16 07:26:00;;;;;;;6.00;1.17;;;;;;;3.86;100.00;97324.31;5032462;28;20475;-71
2023/01/16 07:28:25;;;;;;;2.78;1.23;;;;;;;3.82;100.00;97318.50;5025549;28;20033;-71
2023/01/16 07:30:51;;;;;;;2.70;1.20;;;;;;;3.66;100.00;97292.00;5049866;28;20036;-70
2023/01/16 07:33:17;;;;;;;3.85;1.15;;;;;;;3.83;100.00;97309.78;5052449;28;20040;-70
2023/01/16 07:35:43;;;;;;;5.57;1.10;;;;;;;3.66;100.00;97276.44;5052087;28;20028;-70
2023/01/16 07:38:08;;;;;;;2.30;0.90;;;;;;;3.83;100.00;97289.00;5046795;28;20777;-70
2023/01/16 07:40:34;;;;;;;4.90;1.00;;;;;;;3.74;100.00;97274.13;5050397;28;20036;-70
2023/01/16 07:42:59;;;;;;;2.15;0.75;;;;;;;3.74;100.00;97262.91;5049682;28;20033;-70
2023/01/16 07:45:25;;;;;;;3.60;1.02;;;;;;;3.89;100.00;97288.56;5051167;28;20122;-70
2023/01/16 07:47:50;;;;;;;1.48;0.60;;;;;;;3.76;100.00;97258.41;5049369;28;20139;-70
2023/01/16 07:50:15;;;;;;;1.67;0.60;;;;;;;3.62;100.00;97232.66;5051695;28;20036;-71
2023/01/16 07:52:43;;;;;;;1.52;0.60;;;;;;;3.85;100.00;97261.16;5051838;28;20387;-70
2023/01/16 07:55:09;;;;;;;1.70;0.73;;;;;;;3.44;100.00;97190.69;5050332;28;20048;-71
2023/01/16 07:57:38;;;;;;;1.58;0.47;;;;;;;3.91;100.00;97257.31;5047175;28;20033;-71
2023/01/16 08:00:09;;;;;;;1.70;0.73;;;;;;;3.89;100.00;97246.19;5048566;28;20101;-70
2023/01/16 08:02:34;;;;;;;1.13;0.40;;;;;;;3.97;100.00;97257.69;5045753;28;20029;-71
2023/01/16 08:05:00;;;;;;;1.70;0.57;;;;;;;3.96;100.00;97243.03;5049654;28;20799;-70
2023/01/16 08:07:25;;;;;;;2.03;0.60;;;;;;;3.96;100.00;97239.59;5047483;28;20152;-70
2023/01/16 08:09:50;;;;;;;1.70;0.68;;;;;;;3.99;100.00;97245.38;5050638;28;20397;-71
2023/01/16 08:12:16;;;;;;;1.33;0.47;;;;;;;3.96;100.00;97232.63;5046152;28;20021;-70
2023/01/16 08:14:41;;;;;;;1.10;0.30;;;;;;;4.00;100.00;97228.88;5048365;28;20703;-70
2023/01/16 08:17:06;;;;;;;1.13;0.45;;;;;;;3.95;100.00;97220.63;5049748;28;20033;-71
2023/01/16 08:19:32;;;;;;;1.73;0.60;;;;;;;4.02;100.00;97221.78;5049962;28;20032;-71
2023/01/16 08:21:58;;;;;;;1.00;0.40;;;;;;;4.02;100.00;97223.56;5050718;28;20025;-71
2023/01/16 08:24:25;;;;;;;1.95;0.35;;;;;;;3.99;100.00;97211.63;5042262;28;20878;-70
2023/01/16 08:26:51;;;;;;;0.65;0.30;;;;;;;3.90;100.00;97194.16;5032071;28;20660;-70
2023/01/16 08:29:16;;;;;;;1.48;0.30;;;;;;;3.87;100.00;97177.97;5050232;28;20028;-71
2023/01/16 08:31:42;;;;;;;1.92;0.50;;;;;;;4.00;100.00;97196.88;5045629;28;20025;-70
2023/01/16 08:34:07;;;;;;;1.08;0.28;;;;;;;4.09;100.00;97191.81;5040706;28;20020;-69
2023/01/16 08:36:33;;;;;;;0.70;0.30;;;;;;;4.16;100.00;97186.16;5052350;28;20029;-70
2023/01/16 08:38:59;;;;;;;2.75;0.40;;;;;;;4.15;100.00;97198.31;5034865;28;20098;-70
2023/01/16 08:52:27;;;;;;;2.08;0.60;;;;;;;4.19;100.00;97188.53;5052143;28;20087;-70
2023/01/16 08:54:52;;;;;;;1.00;0.35;;;;;;;4.20;100.00;97192.75;5033886;28;20357;-71
2023/01/16 08:57:18;;;;;;;0.30;0.10;;;;;;;4.28;100.00;97186.06;5049915;28;20079;-70
2023/01/16 08:59:43;;;;;;;1.80;0.40;;;;;;;4.31;100.00;97190.19;5024774;28;20037;-69
2023/01/16 09:02:10;;;;;;;0.63;0.30;;;;;;;4.22;100.00;97160.53;5051947;28;20496;-71
2023/01/16 09:04:35;;;;;;;0.70;0.30;;;;;;;4.00;100.00;97130.19;5033702;28;20037;-70
2023/01/16 09:07:01;;;;;;;1.38;0.30;;;;;;;4.30;100.00;97171.16;5051731;28;20511;-72
2023/01/16 09:09:26;;;;;;;0.43;0.20;;;;;;;4.26;100.00;97158.53;5051901;28;20422;-71
2023/01/16 09:14:39;;;;;;;0.90;0.20;;;;;;;4.32;100.00;97147.66;5046189;28;20039;-70
2023/01/16 09:17:06;;;;;;;2.33;0.20;;;;;;;4.29;100.00;97153.91;5051816;28;20024;-70
2023/01/16 09:19:32;;;;;;;0.70;0.30;;;;;;;4.31;100.00;97146.00;5051465;28;20065;-70
2023/01/16 09:21:57;;;;;;;0.60;0.30;;;;;;;4.29;100.00;97150.50;5051516;28;20068;-71
2023/01/16 09:24:23;;;;;;;1.45;0.43;;;;;;;4.27;100.00;97141.97;5051251;28;20090;-70
2023/01/16 09:26:48;;;;;;;1.50;0.40;;;;;;;4.21;100.00;97130.31;5053546;28;20025;-70
2023/01/16 09:29:13;;;;;;;0.85;0.30;;;;;;;4.21;100.00;97129.47;5052370;28;20028;-71
2023/01/16 09:31:39;;;;;;;1.77;0.32;;;;;;;4.09;100.00;97106.09;5053332;28;20523;-70
2023/01/16 09:34:04;;;;;;;0.80;0.30;;;;;;;4.27;100.00;97129.00;5055531;28;20033;-70
2023/01/16 09:36:29;;;;;;;1.00;0.30;;;;;;;4.25;100.00;97123.94;5055581;28;20574;-70
2023/01/16 09:38:55;;;;;;;0.75;0.30;;;;;;;4.30;100.00;97116.59;5056141;28;20028;-71
2023/01/16 09:44:10;;;;;;;0.90;0.40;;;;;;;4.31;100.00;97105.25;5040395;28;20047;-70
2023/01/16 09:46:39;;;;;;;1.60;0.50;;;;;;;4.15;100.00;97054.63;5050906;28;20033;-71
2023/01/16 09:49:28;;;;;;;0.68;0.30;;;;;;;4.44;100.00;97097.31;5037546;28;20036;-70
2023/01/16 10:00:24;;;;;;;1.17;0.35;;;;;;;4.61;100.00;97076.84;5040212;28;20036;-71
2023/01/16 10:02:50;;;;;;;0.88;0.30;;;;;;;4.78;100.00;97095.47;5037115;28;20028;-70
2023/01/16 10:05:17;;;;;;;1.33;0.38;;;;;;;4.78;100.00;97062.50;5054883;28;20108;-70
2023/01/16 10:08:17;;;;;;;2.10;0.52;;;;;;;5.22;100.00;97076.28;5053157;28;20550;-70
2023/01/16 10:10:43;;;;;;;0.75;0.30;;;;;;;5.53;100.00;97067.59;5068479;28;20032;-71
2023/01/16 10:13:14;;;;;;;0.43;0.20;;;;;;;5.80;100.00;97067.88;5050460;28;20104;-70
2023/01/16 10:15:43;;;;;;;0.80;0.30;;;;;;;6.03;100.00;97063.34;5034611;28;20479;-70
2023/01/16 10:18:20;;;;;;;0.82;0.28;;;;;;;6.15;100.00;97064.94;5051065;28;20033;-71
2023/01/16 10:21:04;;;;;;;1.15;0.40;;;;;;;6.13;100.00;97044.19;5053501;28;20033;-70
2023/01/16 10:23:44;;;;;;;0.20;0.17;;;;;;;5.93;100.00;97050.28;5051907;28;20025;-70
2023/01/16 10:26:30;;;;;;;0.73;0.25;;;;;;;5.75;100.00;97033.56;5031655;28;20044;-70
2023/01/16 10:29:33;;;;;;;0.63;0.20;;;;;;;5.69;100.00;97031.50;5040086;28;20025;-71
2023/01/16 10:32:28;;;;;;;2.05;0.50;;;;;;;5.65;100.00;97022.28;5052553;28;20390;-71
2023/01/16 10:35:05;;;;;;;;;;;;;;;5.77;100.00;97008.25;5037135;28;20104;-71
2023/01/16 10:37:32;;;;;;;2.33;0.52;;;;;;;6.00;100.00;97014.09;5068388;28;19959;-71
2023/01/16 10:39:59;;;;;;;2.88;0.60;;;;;;;5.97;100.00;96986.53;5034574;28;20471;-72
2023/01/16 10:50:40;;;;;;;0.63;0.40;;;;;;;6.02;100.00;96992.16;5038987;28;20087;-71
2023/01/16 10:53:07;;;;;;;0.57;0.20;;;;;;;5.99;100.00;96987.22;5053519;28;20037;-70
2023/01/16 10:55:35;;;;;;;3.10;0.50;;;;;;;5.88;100.00;96942.22;5053373;28;20044;-71
2023/01/16 10:58:04;;;;;;;1.33;0.30;;;;;;;6.16;100.00;96980.53;5053075;28;20119;-70
2023/01/16 11:00:41;;;;;;;0.93;0.40;;;;;;;6.28;100.00;96983.88;5052981;28;20028;-70
2023/01/16 11:03:33;;;;;;;3.17;0.32;;;;;;;6.34;100.00;96978.13;5026675;28;20115;-70
2023/01/16 11:06:18;;;;;;;0.68;0.20;;;;;;;6.31;100.00;96971.41;5047313;28;20025;-71
2023/01/16 11:08:47;;;;;;;0.30;0.20;;;;;;;6.26;100.00;96957.09;5053609;28;20032;-70
2023/01/16 11:20:18;;;;;;;0.93;0.38;;;;;;;5.84;100.00;96925.19;5049192;28;20043;-71
2023/01/16 11:22:47;;;;;;;0.38;0.20;;;;;;;5.79;100.00;96912.53;5028580;28;20095;-66
2023/01/16 11:25:18;;;;;;;1.27;0.52;;;;;;;5.80;100.00;96903.78;5035309;28;20439;-67
2023/01/16 11:27:44;;;;;;;0.75;0.30;;;;;;;5.88;100.00;96910.97;5053001;28;20113;-67
2023/01/16 11:30:19;;;;;;;0.60;0.28;;;;;;;5.94;100.00;96906.03;5052566;28;20068;-67
2023/01/16 11:32:48;;;;;;;0.47;0.20;;;;;;;5.75;100.00;96863.44;5053754;28;20025;-67
2023/01/16 11:35:15;;;;;;;1.02;0.25;;;;;;;5.97;100.00;96889.31;5053771;28;20035;-68
2023/01/16 11:37:43;;;;;;;4.22;0.38;;;;;;;5.97;100.00;96879.72;5035446;28;20037;-67
2023/01/16 11:40:16;;;;;;;0.52;0.20;;;;;;;5.98;100.00;96873.53;5035512;28;20421;-67
2023/01/16 11:48:26;;;;;;;1.45;0.35;;;;;;;6.01;100.00;96849.00;5043881;28;20464;-71
2023/01/16 11:50:56;;;;;;;3.85;0.40;;;;;;;6.00;100.00;96839.53;5051978;28;20025;-71
2023/01/16 11:53:22;;;;;;;0.85;0.17;;;;;;;5.90;100.00;96805.66;5035548;28;20372;-71
2023/01/16 11:56:12;;;;;;;2.88;0.60;;;;;;;6.42;100.00;96846.09;5040015;28;20029;-70
2023/01/16 11:58:48;;;;;;;1.05;0.32;;;;;;;6.66;100.00;96836.03;5052636;28;20035;-70
2023/01/16 12:01:25;;;;;;;0.68;0.30;;;;;;;7.06;100.00;96824.56;5052166;28;20033;-71
2023/01/16 12:04:04;;;;;;;1.27;0.20;;;;;;;7.21;100.00;96804.81;5052349;28;20425;-71
2023/01/16 12:06:51;;;;;;;0.50;0.20;;;;;;;7.39;100.00;96823.16;5034719;28;20064;-71
2023/01/16 12:09:42;;;;;;;1.60;0.52;;;;;;;7.47;100.00;96811.00;5052494;28;20091;-70
2023/01/16 12:15:40;;;;;;;0.80;0.30;;;;;;;7.34;100.00;96804.47;5052532;28;20171;-71
2023/01/16 12:18:14;;;;;;;2.08;0.40;;;;;;;7.29;100.00;96801.50;5047908;28;20372;-70
2023/01/16 12:21:02;;;;;;;3.28;0.55;;;;;;;7.28;100.00;96786.78;5033467;28;20029;-71
2023/01/16 12:23:36;;;;;;;0.98;0.30;;;;;;;7.12;100.00;96796.09;5034217;28;20033;-70
2023/01/16 12:26:18;;;;;;;0.38;0.20;;;;;;;6.87;100.00;96791.50;5045615;28;20056;-70
2023/01/16 12:29:21;;;;;;;0.80;0.30;;;;;;;6.85;100.00;96788.22;5042698;28;20548;-71
2023/01/16 12:31:53;;;;;;;0.95;0.50;;;;;;;6.79;100.00;96777.53;5048798;28;20029;-71
2023/01/16 12:34:52;;;;;;;0.57;0.22;;;;;;;6.62;100.00;96771.28;5052822;28;20447;-71
2023/01/16 12:37:46;;;;;;;1.35;0.40;;;;;;;6.47;100.00;96768.28;5041253;28;20041;-71
2023/01/16 12:40:30;;;;;;;0.75;0.25;;;;;;;6.35;100.00;96773.81;5030404;28;20469;-71
2023/01/16 12:43:23;;;;;;;0.70;0.30;;;;;;;6.30;100.00;96765.56;5049676;28;20532;-70
2023/01/16 12:45:49;;;;;;;0.63;0.30;;;;;;;6.24;100.00;96761.75;5052397;28;20826;-71
2023/01/16 12:48:24;;;;;;;0.70;0.20;;;;;;;6.20;100.00;96755.16;5051654;28;20047;-70
2023/01/16 12:51:06;;;;;;;0.77;0.30;;;;;;;6.05;100.00;96720.09;5050976;28;20032;-70